Time;durP1;ratioP1;P1;durP2;ratioP2;P2;SDS_P1;SDS_P2;PMS_P1;PMS_P2;Temp;Humidity;BMP_temperature;BMP_pressure;BME280_temperature;BME280_humidity;BME280_pressure;Samples;Min_cycle;Max_cycle;Signal;HPM_P1;HPM_P2
2022/04/20 00:00:35;;;;;;;12.82;9.10;;;;;;;2.94;79.24;100018.84;5026285;28;20064;-31
2022/04/20 00:03:01;;;;;;;12.20;9.00;;;;;;;2.77;78.67;100003.09;5026524;28;20026;-29
2022/04/20 00:05:27;;;;;;;10.50;7.40;;;;;;;2.23;81.02;99992.38;5026262;28;20410;-29
2022/04/20 00:07:52;;;;;;;13.00;9.05;;;;;;;2.41;81.77;100000.91;5027748;28;20029;-29
2022/04/20 00:10:18;;;;;;;11.45;8.35;;;;;;;2.41;81.97;100003.53;5027177;28;20025;-34
2022/04/20 00:12:43;;;;;;;13.20;9.20;;;;;;;2.39;81.60;99984.47;5027927;28;20083;-30
2022/04/20 00:15:09;;;;;;;17.42;11.75;;;;;;;2.39;82.72;100000.25;5027664;28;20022;-29
2022/04/20 00:17:35;;;;;;;12.13;8.32;;;;;;;2.31;83.13;100005.53;5027710;28;20021;-29
2022/04/20 00:20:00;;;;;;;14.27;9.88;;;;;;;2.33;83.78;100006.19;5027539;28;20029;-29
2022/04/20 00:22:26;;;;;;;15.05;10.75;;;;;;;2.19;84.12;99994.50;5027357;28;20032;-29
2022/04/20 00:24:51;;;;;;;17.10;12.07;;;;;;;2.25;83.82;99993.03;5027370;28;20099;-30
2022/04/20 00:27:17;;;;;;;16.70;12.52;;;;;;;2.11;84.52;99994.53;5030240;28;20025;-30
2022/04/20 00:29:42;;;;;;;13.95;10.05;;;;;;;2.09;84.26;100004.38;5031739;28;20037;-29
2022/04/20 00:32:08;;;;;;;15.15;10.35;;;;;;;2.20;83.11;99985.63;5031333;28;20025;-29
2022/04/20 00:34:33;;;;;;;14.68;10.75;;;;;;;2.54;81.52;99996.94;5031332;28;20032;-31
2022/04/20 00:36:59;;;;;;;15.98;11.48;;;;;;;2.65;80.48;99998.38;5030783;28;20426;-30
2022/04/20 00:39:25;;;;;;;14.52;10.43;;;;;;;2.55;79.17;100003.81;5031004;28;20029;-31
2022/04/20 00:41:52;;;;;;;18.52;11.45;;;;;;;2.34;78.06;100012.25;5031053;28;20071;-30
2022/04/20 00:44:19;;;;;;;21.67;11.93;;;;;;;2.17;78.70;100021.97;5029617;28;20037;-30
2022/04/20 00:46:46;;;;;;;28.20;13.85;;;;;;;2.26;78.89;100017.53;5029792;28;20127;-30
2022/04/20 00:49:14;;;;;;;32.38;16.90;;;;;;;2.13;79.72;100010.97;5029689;28;20053;-31
2022/04/20 00:51:57;;;;;;;35.78;18.92;;;;;;;2.00;79.52;100016.72;5029641;28;20090;-29
2022/04/20 00:54:24;;;;;;;32.33;18.70;;;;;;;1.95;80.51;100019.00;5030949;28;20069;-29
2022/04/20 00:56:49;;;;;;;25.48;15.93;;;;;;;1.92;81.30;100014.09;5029641;28;20029;-34
2022/04/20 00:59:22;;;;;;;22.55;15.55;;;;;;;2.31;80.66;100031.84;5030696;28;20033;-32
2022/04/20 01:01:49;;;;;;;23.55;16.08;;;;;;;2.44;79.33;100033.13;5029528;28;20075;-30
2022/04/20 01:04:15;;;;;;;23.05;15.35;;;;;;;2.67;78.96;100018.28;5029259;28;20501;-30
2022/04/20 01:06:40;;;;;;;25.58;17.42;;;;;;;2.64;78.78;100028.34;5030514;28;20028;-32
2022/04/20 01:09:06;;;;;;;43.05;24.67;;;;;;;2.32;79.14;100020.31;5030453;28;20087;-32
2022/04/20 01:11:32;;;;;;;61.58;31.98;;;;;;;2.49;79.28;100015.03;5030684;28;20029;-30
2022/04/20 01:13:57;;;;;;;37.80;21.38;;;;;;;2.35;79.41;100004.19;5030606;28;20063;-29
2022/04/20 01:16:23;;;;;;;27.35;16.17;;;;;;;2.41;78.50;100023.75;5029088;28;20475;-30
2022/04/20 01:18:50;;;;;;;34.78;18.52;;;;;;;2.04;80.55;100026.91;5030524;28;20026;-29
2022/04/20 01:21:15;;;;;;;30.15;17.98;;;;;;;1.91;80.32;99996.66;5028751;28;20030;-31
2022/04/20 01:23:42;;;;;;;29.05;19.00;;;;;;;2.13;79.47;100005.69;5030307;28;20040;-29
2022/04/20 01:26:08;;;;;;;27.90;17.67;;;;;;;1.96;79.25;99998.78;5029019;28;20056;-29
2022/04/20 01:28:36;;;;;;;36.67;14.25;;;;;;;1.96;77.59;100007.53;5028867;28;20029;-29
2022/04/20 01:31:02;;;;;;;33.43;14.30;;;;;;;1.62;79.65;100012.09;5029007;28;20030;-30
2022/04/20 01:33:28;;;;;;;24.85;14.40;;;;;;;1.54;82.03;100005.81;5028859;28;20025;-30
2022/04/20 01:35:54;;;;;;;24.40;15.02;;;;;;;1.49;81.99;100002.03;5028363;28;20064;-28
2022/04/20 01:38:19;;;;;;;25.35;15.35;;;;;;;1.33;83.92;100005.47;5029255;28;20025;-28
2022/04/20 01:40:45;;;;;;;35.67;16.88;;;;;;;1.33;83.52;99984.44;5030224;28;20544;-32
2022/04/20 01:43:10;;;;;;;88.28;21.63;;;;;;;1.60;84.46;99999.09;5028891;28;20029;-35
2022/04/20 01:45:36;;;;;;;66.53;20.63;;;;;;;1.73;82.98;99988.09;5028680;28;20112;-29
2022/04/20 01:48:01;;;;;;;32.85;19.00;;;;;;;1.91;82.32;99991.41;5029881;28;20040;-28
2022/04/20 01:50:27;;;;;;;52.63;21.48;;;;;;;2.00;81.35;100002.72;5029743;28;20060;-29
2022/04/20 01:52:53;;;;;;;42.28;21.33;;;;;;;1.95;81.64;99987.44;5028518;28;20079;-29
2022/04/20 01:55:19;;;;;;;46.20;21.25;;;;;;;1.68;83.39;99990.41;5029868;28;20033;-28
2022/04/20 01:57:44;;;;;;;60.55;31.20;;;;;;;1.72;83.29;99981.22;5030012;28;20397;-36
2022/04/20 02:00:11;;;;;;;78.72;33.70;;;;;;;2.32;79.82;100007.16;5029750;28;20041;-29
2022/04/20 02:02:40;;;;;;;45.88;23.75;;;;;;;2.38;79.55;100003.84;5029569;28;20025;-29
2022/04/20 02:05:08;;;;;;;38.97;20.25;;;;;;;1.98;81.65;100005.53;5028384;28;20063;-29
2022/04/20 02:07:34;;;;;;;39.05;20.95;;;;;;;1.79;84.00;100003.22;5028497;28;20030;-28
2022/04/20 02:10:00;;;;;;;35.65;19.92;;;;;;;1.86;82.81;100014.75;5029974;28;20045;-28
2022/04/20 02:12:26;;;;;;;64.63;27.58;;;;;;;1.70;83.70;100009.47;5028097;28;20073;-31
2022/04/20 02:14:51;;;;;;;64.80;32.28;;;;;;;1.90;82.27;100009.97;5029494;28;20064;-31
2022/04/20 02:17:17;;;;;;;64.43;31.27;;;;;;;1.47;82.13;99983.81;5029370;28;20034;-31
2022/04/20 02:19:42;;;;;;;110.75;56.47;;;;;;;1.44;81.77;99999.06;5029633;28;20057;-29
2022/04/20 02:22:08;;;;;;;88.80;47.22;;;;;;;1.43;81.95;99998.25;5029652;28;20422;-30
2022/04/20 02:24:33;;;;;;;75.97;41.53;;;;;;;0.90;83.51;99991.50;5029384;28;20059;-29
2022/04/20 02:26:59;;;;;;;43.53;22.08;;;;;;;0.85;85.14;100010.34;5029437;28;20033;-29
2022/04/20 02:29:24;;;;;;;31.15;18.80;;;;;;;0.69;85.27;99999.78;5029226;28;20409;-31
2022/04/20 02:31:50;;;;;;;35.58;19.40;;;;;;;0.98;84.20;99987.13;5029071;28;20026;-28
2022/04/20 02:34:15;;;;;;;29.13;16.58;;;;;;;1.04;84.38;100003.22;5029085;28;20033;-31
2022/04/20 02:36:41;;;;;;;24.20;14.05;;;;;;;0.83;84.61;100003.63;5028656;28;20057;-30
2022/04/20 02:39:07;;;;;;;27.15;15.43;;;;;;;0.70;84.88;100002.25;5027640;28;20413;-32
2022/04/20 02:41:35;;;;;;;23.00;13.77;;;;;;;0.80;84.61;99991.66;5028954;28;20033;-33
2022/04/20 02:44:00;;;;;;;;;;;;;;;1.08;83.99;100010.59;5027985;28;20080;-30
2022/04/20 02:46:26;;;;;;;32.78;18.98;;;;;;;1.34;83.09;100007.09;5028471;28;19916;-32
2022/04/20 02:48:51;;;;;;;35.33;21.80;;;;;;;1.40;79.99;100019.59;5028924;28;20033;-29
2022/04/20 02:51:17;;;;;;;40.42;16.75;;;;;;;1.11;79.82;100010.31;5028980;28;20087;-32
2022/04/20 02:53:42;;;;;;;47.25;20.77;;;;;;;0.77;80.35;100008.50;5028857;28;20025;-29
2022/04/20 02:56:08;;;;;;;39.10;19.85;;;;;;;1.07;80.02;100035.25;5028682;28;20021;-28
2022/04/20 02:58:33;;;;;;;49.60;20.83;;;;;;;0.85;80.44;100035.78;5028280;28;20447;-28
2022/04/20 03:00:59;;;;;;;41.50;20.48;;;;;;;0.65;81.66;100028.13;5028252;28;20037;-30
2022/04/20 03:03:24;;;;;;;36.63;21.15;;;;;;;0.66;82.52;100032.41;5028307;28;20029;-30
2022/04/20 03:05:51;;;;;;;34.55;18.58;;;;;;;0.82;82.16;100043.97;5028649;28;20437;-28
2022/04/20 03:08:17;;;;;;;27.45;18.85;;;;;;;0.70;83.66;100025.88;5027057;28;20071;-30
2022/04/20 03:10:42;;;;;;;28.77;17.75;;;;;;;1.13;82.45;100034.59;5026964;28;20029;-30
2022/04/20 03:13:08;;;;;;;29.38;17.98;;;;;;;1.30;81.32;100027.59;5028397;28;20417;-29
2022/04/20 03:15:33;;;;;;;29.50;18.02;;;;;;;1.45;80.23;100022.56;5028537;28;20033;-29
2022/04/20 03:17:58;;;;;;;27.30;17.63;;;;;;;1.16;82.02;100033.47;5028114;28;20037;-31
2022/04/20 03:20:25;;;;;;;27.02;18.25;;;;;;;1.13;82.42;100034.59;5028180;28;20090;-29
2022/04/20 03:22:50;;;;;;;28.58;18.27;;;;;;;1.08;82.86;100036.88;5027135;28;20199;-29
2022/04/20 03:25:16;;;;;;;26.30;16.60;;;;;;;0.97;83.40;100045.03;5026400;28;20628;-28
2022/04/20 03:27:41;;;;;;;32.58;18.77;;;;;;;1.06;82.67;100022.25;5027498;28;20037;-33
2022/04/20 03:30:07;;;;;;;30.13;18.92;;;;;;;0.97;83.23;100016.16;5027557;28;20036;-32
2022/04/20 03:32:35;;;;;;;36.00;21.48;;;;;;;0.87;83.30;100012.84;5010037;28;20036;-30
2022/04/20 03:35:01;;;;;;;32.08;19.95;;;;;;;0.85;84.24;100023.47;5026685;28;20065;-28
2022/04/20 03:37:26;;;;;;;27.67;18.63;;;;;;;0.78;83.72;100019.84;5026609;28;20067;-28
2022/04/20 03:39:54;;;;;;;26.42;15.80;;;;;;;0.84;84.10;100034.13;5010488;28;20112;-28
2022/04/20 03:42:19;;;;;;;35.95;22.17;;;;;;;1.24;82.84;100037.94;5026319;28;20030;-30
2022/04/20 03:44:45;;;;;;;39.42;22.55;;;;;;;1.09;82.97;100020.16;5026527;28;20056;-28
2022/04/20 03:47:10;;;;;;;45.95;25.55;;;;;;;1.20;82.47;100037.41;5027832;28;20083;-30
2022/04/20 03:49:36;;;;;;;47.75;29.52;;;;;;;1.14;83.10;100024.91;5028055;28;20080;-28
2022/04/20 03:52:01;;;;;;;74.05;41.17;;;;;;;1.53;81.72;100046.25;5027591;28;20086;-30
2022/04/20 03:54:27;;;;;;;66.95;36.42;;;;;;;1.49;80.14;100038.81;5025900;28;20087;-29
2022/04/20 03:57:05;;;;;;;50.25;31.02;;;;;;;1.49;79.68;100044.06;5027586;28;20029;-29
2022/04/20 03:59:32;;;;;;;36.13;21.90;;;;;;;1.14;78.92;100033.63;5025779;28;20021;-28
2022/04/20 04:01:58;;;;;;;38.80;21.92;;;;;;;0.96;80.54;100028.47;5027164;28;20043;-28
2022/04/20 04:04:23;;;;;;;39.85;18.33;;;;;;;1.07;80.56;100039.69;5027377;28;20758;-30
2022/04/20 04:06:49;;;;;;;52.53;18.80;;;;;;;0.83;80.54;100028.06;5026093;28;20076;-32
2022/04/20 04:09:15;;;;;;;37.05;16.77;;;;;;;0.84;80.41;100060.38;5027227;28;20433;-28
2022/04/20 04:11:41;;;;;;;37.85;19.92;;;;;;;0.74;81.85;100066.59;5027366;28;20411;-28
2022/04/20 04:14:07;;;;;;;42.22;22.48;;;;;;;0.74;82.80;100063.97;5027061;28;20391;-28
2022/04/20 04:16:36;;;;;;;51.15;26.02;;;;;;;0.74;82.47;100061.34;5025835;28;20064;-29
2022/04/20 04:19:07;;;;;;;74.85;43.17;;;;;;;1.04;81.77;100076.75;5026117;28;20048;-30
2022/04/20 04:21:35;;;;;;;54.90;31.83;;;;;;;1.11;80.74;100075.97;5027597;28;20394;-31
2022/04/20 04:24:00;;;;;;;55.47;25.80;;;;;;;0.79;81.14;100059.06;5026193;28;20029;-28
2022/04/20 04:26:27;;;;;;;47.50;24.50;;;;;;;0.78;82.84;100067.91;5026971;28;20044;-28
2022/04/20 04:28:53;;;;;;;43.13;22.58;;;;;;;0.91;83.23;100062.25;5027097;28;20502;-31
2022/04/20 04:31:19;;;;;;;41.97;21.95;;;;;;;0.98;82.82;100070.31;5027257;28;20040;-30
2022/04/20 04:33:44;;;;;;;63.63;19.98;;;;;;;0.93;82.25;100060.28;5027296;28;20030;-31
2022/04/20 04:36:10;;;;;;;45.25;21.08;;;;;;;1.13;84.39;100074.00;5026760;28;20409;-32
2022/04/20 04:38:35;;;;;;;64.93;19.80;;;;;;;1.12;82.79;100058.41;5026965;28;20501;-31
2022/04/20 04:41:01;;;;;;;48.85;18.77;;;;;;;1.50;81.92;100080.72;5026941;28;20032;-29
2022/04/20 04:43:27;;;;;;;31.95;17.30;;;;;;;1.49;82.65;100073.81;5026894;28;20031;-28
2022/04/20 04:48:36;;;;;;;46.30;17.27;;;;;;;1.70;83.71;100085.72;5026794;28;20114;-29
2022/04/20 04:51:03;;;;;;;45.97;17.80;;;;;;;1.93;82.00;100063.06;5025810;28;20037;-28
2022/04/20 04:53:29;;;;;;;49.22;16.23;;;;;;;2.07;80.48;100074.75;5025521;28;20033;-33
2022/04/20 04:55:55;;;;;;;53.80;17.27;;;;;;;1.92;79.85;100068.47;5026903;28;20609;-30
2022/04/20 04:58:20;;;;;;;31.73;18.08;;;;;;;1.97;81.79;100074.91;5026543;28;20489;-33
2022/04/20 05:00:45;;;;;;;51.20;18.40;;;;;;;1.94;80.56;100061.25;5027341;28;20501;-28
2022/04/20 05:03:13;;;;;;;35.80;16.70;;;;;;;2.11;80.79;100064.72;5026911;28;20025;-28
2022/04/20 05:05:40;;;;;;;26.50;16.57;;;;;;;1.91;82.91;100069.47;5027068;28;20029;-28
2022/04/20 05:08:06;;;;;;;37.80;17.70;;;;;;;2.31;82.29;100066.03;5026802;28;20279;-32
2022/04/20 05:10:31;;;;;;;39.53;24.20;;;;;;;2.36;82.42;100078.69;5025253;28;20026;-31
2022/04/20 05:12:58;;;;;;;51.60;28.23;;;;;;;2.47;83.00;100088.88;5026096;28;20055;-29
2022/04/20 05:15:23;;;;;;;64.65;19.13;;;;;;;2.46;82.27;100060.13;5029374;28;20029;-29
2022/04/20 05:17:49;;;;;;;41.42;18.73;;;;;;;2.27;83.44;100077.91;5030268;28;20094;-28
2022/04/20 05:20:14;;;;;;;39.80;19.40;;;;;;;2.16;83.83;100079.03;5030526;28;20104;-29
2022/04/20 05:22:39;;;;;;;39.92;18.50;;;;;;;2.42;84.56;100070.97;5030363;28;20037;-28
2022/04/20 05:25:05;;;;;;;36.90;19.25;;;;;;;2.47;84.51;100070.47;5029959;28;20036;-30
2022/04/20 05:27:31;;;;;;;35.38;18.45;;;;;;;2.36;85.37;100052.38;5028885;28;20040;-30
2022/04/20 05:29:57;;;;;;;33.33;18.98;;;;;;;2.61;86.26;100087.41;5030259;28;20026;-30
2022/04/20 05:32:22;;;;;;;45.22;18.85;;;;;;;2.74;84.92;100069.28;5030025;28;20037;-30
2022/04/20 05:34:47;;;;;;;38.42;18.40;;;;;;;3.10;83.88;100087.28;5029745;28;20095;-28
2022/04/20 05:42:42;;;;;;;28.17;16.20;;;;;;;3.29;83.84;100075.53;5029703;28;20567;-32
2022/04/20 05:45:09;;;;;;;36.05;16.33;;;;;;;3.32;82.81;100077.81;5029822;28;20128;-30
2022/04/20 05:47:34;;;;;;;35.72;16.38;;;;;;;3.60;82.32;100067.66;5029975;28;20037;-35
2022/04/20 05:50:00;;;;;;;24.23;17.08;;;;;;;3.82;82.42;100070.47;5029627;28;20022;-28
2022/04/20 05:52:25;;;;;;;30.10;17.88;;;;;;;4.09;81.46;100050.69;5029781;28;20490;-30
2022/04/20 05:54:51;;;;;;;29.50;16.85;;;;;;;4.50;80.46;100057.44;5030366;28;20040;-29
2022/04/20 05:57:16;;;;;;;29.60;19.58;;;;;;;4.69;80.87;100067.47;5029828;28;20037;-34
2022/04/20 05:59:42;;;;;;;31.23;20.40;;;;;;;4.64;81.42;100059.28;5029924;28;20025;-30
2022/04/20 06:02:07;;;;;;;30.75;17.70;;;;;;;4.75;80.71;100064.09;5029612;28;20068;-33
2022/04/20 06:04:33;;;;;;;35.42;17.80;;;;;;;4.77;79.77;100054.19;5029248;28;20108;-33
2022/04/20 06:06:58;;;;;;;26.52;16.08;;;;;;;4.97;78.19;100045.72;5029970;28;20116;-36
2022/04/20 06:09:23;;;;;;;27.23;18.13;;;;;;;4.54;82.91;100056.06;5029752;28;20039;-34
2022/04/20 06:11:52;;;;;;;30.92;18.83;;;;;;;4.75;82.07;100048.25;5029433;28;20084;-29
2022/04/20 06:14:18;;;;;;;23.38;15.35;;;;;;;5.06;80.12;100046.44;5029210;28;20060;-32
2022/04/20 06:16:43;;;;;;;25.88;17.38;;;;;;;5.30;80.79;100058.53;5029475;28;20079;-34
2022/04/20 06:19:09;;;;;;;30.40;17.73;;;;;;;5.79;77.23;100056.06;5028869;28;20116;-30
2022/04/20 06:21:34;;;;;;;25.85;16.88;;;;;;;5.46;78.94;100037.19;5029512;28;20632;-34
2022/04/20 06:24:00;;;;;;;26.48;17.40;;;;;;;5.79;76.55;100042.00;5028669;28;20022;-30
2022/04/20 06:26:26;;;;;;;27.77;18.40;;;;;;;5.90;76.59;100035.38;5029190;28;20037;-29
2022/04/20 06:28:51;;;;;;;28.65;19.05;;;;;;;6.21;78.67;100046.50;5027890;28;20409;-32
2022/04/20 06:31:16;;;;;;;28.65;18.95;;;;;;;6.13;79.02;100040.50;5029107;28;20037;-32
2022/04/20 06:33:42;;;;;;;27.90;19.15;;;;;;;6.35;76.96;100036.81;5028805;28;20398;-31
2022/04/20 06:36:07;;;;;;;26.60;18.63;;;;;;;6.59;76.99;100034.78;5028913;28;20484;-34
2022/04/20 06:38:33;;;;;;;29.92;19.05;;;;;;;6.87;76.04;100033.94;5028858;28;20482;-34
2022/04/20 06:40:58;;;;;;;28.75;19.75;;;;;;;6.74;77.16;100019.59;5027121;28;20412;-33
2022/04/20 06:43:24;;;;;;;35.78;24.48;;;;;;;6.95;77.33;100036.44;5028795;28;20026;-30
2022/04/20 06:45:49;;;;;;;31.95;21.17;;;;;;;7.02;77.28;100032.78;5028585;28;20033;-30
2022/04/20 06:48:15;;;;;;;31.40;21.52;;;;;;;6.77;76.28;100026.31;5028467;28;20033;-33
2022/04/20 06:50:41;;;;;;;31.85;20.38;;;;;;;6.88;77.10;100009.84;5028283;28;20037;-29
2022/04/20 06:58:42;;;;;;;31.95;21.08;;;;;;;6.93;75.58;100014.59;5028375;28;20109;-30
2022/04/20 07:01:08;;;;;;;26.75;19.65;;;;;;;7.39;73.79;100008.66;5027248;28;20037;-31
2022/04/20 07:03:35;;;;;;;48.05;42.13;;;;;;;7.80;71.55;100007.72;5027220;28;20508;-30
2022/04/20 07:06:01;;;;;;;29.77;22.05;;;;;;;7.84;72.75;100008.97;5026853;28;20030;-30
2022/04/20 07:08:28;;;;;;;31.33;21.52;;;;;;;7.92;71.42;99990.19;5026766;28;20060;-30
2022/04/20 07:10:53;;;;;;;31.30;23.15;;;;;;;7.99;71.22;99998.97;5028171;28;20486;-32
2022/04/20 07:13:19;;;;;;;29.08;21.63;;;;;;;8.12;70.58;100014.09;5028559;28;20033;-30
2022/04/20 07:15:45;;;;;;;35.42;22.98;;;;;;;8.30;70.55;100021.47;5028497;28;20104;-31
2022/04/20 07:18:11;;;;;;;34.10;21.95;;;;;;;8.04;72.19;100015.09;5028242;28;20045;-31
2022/04/20 07:20:37;;;;;;;29.75;21.13;;;;;;;8.08;74.18;100020.03;5027995;28;20026;-29
2022/04/20 07:23:02;;;;;;;26.80;20.60;;;;;;;8.16;71.66;100019.81;5027894;28;20025;-30
2022/04/20 07:25:29;;;;;;;28.52;20.67;;;;;;;8.26;73.83;100009.59;5028011;28;20759;-31
2022/04/20 07:27:55;;;;;;;28.27;20.77;;;;;;;7.77;73.66;100029.38;5027499;28;20029;-30
2022/04/20 07:30:21;;;;;;;29.35;20.63;;;;;;;8.09;73.31;100016.34;5026147;28;20484;-38
2022/04/20 07:32:48;;;;;;;31.23;21.23;;;;;;;8.43;71.58;100018.00;5026361;28;20033;-38
2022/04/20 07:35:14;;;;;;;29.42;20.17;;;;;;;8.43;73.49;100008.19;5025867;28;20068;-34
2022/04/20 07:37:39;;;;;;;29.67;20.00;;;;;;;8.63;71.54;100007.34;5027062;28;20029;-31
2022/04/20 07:40:06;;;;;;;29.23;20.25;;;;;;;8.94;70.23;100008.50;5027681;28;20017;-30
2022/04/20 07:42:32;;;;;;;28.63;19.73;;;;;;;9.36;69.07;100016.94;5025887;28;20132;-34
2022/04/20 07:44:58;;;;;;;27.38;19.88;;;;;;;9.82;65.58;100010.53;5027707;28;20025;-29
2022/04/20 07:47:25;;;;;;;24.85;18.10;;;;;;;9.77;65.25;100007.72;5026241;28;20449;-31
2022/04/20 07:52:43;;;;;;;24.90;18.73;;;;;;;9.45;69.66;99994.38;5027204;28;20044;-30
2022/04/20 07:55:13;;;;;;;34.35;20.73;;;;;;;9.54;68.48;99987.78;5026060;28;20087;-30
2022/04/20 07:57:39;;;;;;;29.50;20.83;;;;;;;9.55;68.10;99972.59;5026091;28;20028;-30
2022/04/20 08:00:06;;;;;;;29.55;20.00;;;;;;;9.32;69.11;99957.19;5027358;28;20030;-34
2022/04/20 08:02:32;;;;;;;26.02;18.90;;;;;;;9.35;70.79;99980.69;5027176;28;20545;-37
2022/04/20 08:04:58;;;;;;;25.55;19.70;;;;;;;9.44;70.42;99960.81;5027303;28;20108;-35
2022/04/20 08:07:24;;;;;;;30.08;20.33;;;;;;;9.67;69.01;99962.09;5027177;28;20041;-30
2022/04/20 08:09:49;;;;;;;28.27;21.08;;;;;;;9.65;70.42;99952.47;5027211;28;20075;-30
2022/04/20 08:12:15;;;;;;;28.67;23.77;;;;;;;9.48;69.41;99972.66;5027358;28;20117;-32
2022/04/20 08:14:41;;;;;;;30.88;24.05;;;;;;;9.68;68.77;99953.06;5026809;28;20044;-31
2022/04/20 08:17:06;;;;;;;24.73;17.90;;;;;;;9.77;68.80;99962.44;5027125;28;20021;-33
2022/04/20 08:19:31;;;;;;;28.33;20.65;;;;;;;9.80;68.66;99964.66;5027256;28;20399;-30
2022/04/20 08:21:58;;;;;;;27.52;22.70;;;;;;;9.80;67.97;99949.47;5025545;28;20025;-35
2022/04/20 08:24:24;;;;;;;23.08;18.60;;;;;;;9.71;69.24;99961.44;5025539;28;20037;-29
2022/04/20 08:26:49;;;;;;;33.47;18.50;;;;;;;9.75;69.20;99956.50;5027063;28;20865;-30
2022/04/20 08:29:15;;;;;;;31.45;22.52;;;;;;;9.74;68.41;99949.53;5027227;28;20041;-29
2022/04/20 08:31:40;;;;;;;34.35;26.67;;;;;;;10.01;68.18;99976.78;5026989;28;20026;-35
2022/04/20 08:34:06;;;;;;;25.33;18.38;;;;;;;10.09;67.80;99968.50;5027163;28;20100;-30
2022/04/20 08:36:31;;;;;;;24.70;17.00;;;;;;;10.10;67.46;99977.34;5026884;28;20045;-32
2022/04/20 08:38:57;;;;;;;25.23;18.85;;;;;;;10.22;68.19;99975.59;5027393;28;20057;-30
2022/04/20 08:41:22;;;;;;;25.45;18.83;;;;;;;10.39;66.60;99971.34;5027378;28;20029;-36
2022/04/20 08:43:48;;;;;;;22.05;16.23;;;;;;;10.53;68.30;99974.72;5025667;28;20397;-31
2022/04/20 08:46:16;;;;;;;18.92;14.52;;;;;;;10.68;65.58;99984.19;5027541;28;20029;-31
2022/04/20 08:48:42;;;;;;;25.73;19.52;;;;;;;10.94;64.00;99964.44;5028991;28;20056;-29
2022/04/20 08:51:08;;;;;;;25.63;17.85;;;;;;;10.58;66.49;99974.03;5030622;28;20409;-30
2022/04/20 08:53:35;;;;;;;23.90;17.38;;;;;;;10.45;66.88;99962.47;5029505;28;20124;-30
2022/04/20 08:58:50;;;;;;;25.23;18.17;;;;;;;10.51;68.10;99978.63;5029115;28;20041;-30
2022/04/20 09:01:18;;;;;;;26.38;18.52;;;;;;;10.65;68.07;99982.81;5029248;28;20822;-33
2022/04/20 09:03:48;;;;;;;24.00;16.83;;;;;;;10.20;68.76;99988.31;5028760;28;20422;-31
2022/04/20 09:06:15;;;;;;;23.42;17.50;;;;;;;9.94;70.96;99997.34;5030865;28;20512;-32
2022/04/20 09:08:41;;;;;;;24.80;19.50;;;;;;;10.22;69.34;99999.59;5028787;28;20422;-31
2022/04/20 09:11:07;;;;;;;24.55;16.92;;;;;;;9.98;68.34;99993.22;5029056;28;20112;-35
2022/04/20 09:13:41;;;;;;;24.70;17.63;;;;;;;9.93;69.80;99985.03;5028999;28;20124;-35
2022/04/20 09:16:10;;;;;;;22.00;17.13;;;;;;;10.23;69.85;99990.53;5030298;28;20025;-32
2022/04/20 09:18:37;;;;;;;24.25;18.23;;;;;;;9.99;69.04;99979.69;5030388;28;20634;-30
2022/04/20 09:21:07;;;;;;;27.33;19.90;;;;;;;9.94;71.43;99987.50;5028999;28;20046;-30
2022/04/20 09:23:33;;;;;;;29.13;20.75;;;;;;;9.95;70.52;99975.81;5028842;28;20038;-32
2022/04/20 09:26:07;;;;;;;29.23;20.98;;;;;;;9.94;69.94;99960.84;5028750;28;20022;-32
2022/04/20 09:28:33;;;;;;;31.38;20.15;;;;;;;9.64;70.05;99958.84;5029750;28;20224;-30
2022/04/20 09:30:59;;;;;;;30.75;20.95;;;;;;;9.55;72.80;99978.75;5028211;28;20040;-33
2022/04/20 09:33:44;;;;;;;30.80;21.10;;;;;;;9.80;71.13;99980.63;5029936;28;20406;-35
2022/04/20 09:36:11;;;;;;;27.98;19.95;;;;;;;9.81;70.76;99979.63;5029650;28;20060;-29
2022/04/20 09:38:41;;;;;;;29.40;20.75;;;;;;;9.68;72.96;99963.72;5028279;28;20025;-32
2022/04/20 09:41:10;;;;;;;28.40;19.98;;;;;;;9.65;72.72;99963.09;5029881;28;20036;-33
2022/04/20 09:43:37;;;;;;;30.63;21.25;;;;;;;9.59;73.35;99963.97;5028446;28;20090;-32
2022/04/20 09:49:08;;;;;;;29.50;20.38;;;;;;;9.91;71.98;99952.47;5029904;28;20044;-31
2022/04/20 09:51:38;;;;;;;35.35;23.80;;;;;;;10.10;74.05;99929.38;5027960;28;20034;-30
2022/04/20 09:54:04;;;;;;;30.40;21.65;;;;;;;10.10;73.13;99932.84;5028107;28;20053;-31
2022/04/20 09:56:31;;;;;;;28.95;21.20;;;;;;;10.12;72.08;99936.13;5028013;28;20087;-33
2022/04/20 09:59:03;;;;;;;31.00;21.33;;;;;;;9.96;74.67;99928.69;5028629;28;20064;-32
2022/04/20 10:01:35;;;;;;;29.08;20.77;;;;;;;9.85;75.99;99919.56;5028265;28;20041;-30
2022/04/20 10:04:05;;;;;;;31.08;22.20;;;;;;;9.80;76.96;99911.38;5011786;28;20028;-31
2022/04/20 10:06:31;;;;;;;33.03;24.73;;;;;;;9.69;75.72;99928.09;5028080;28;20040;-34
2022/04/20 10:08:57;;;;;;;32.55;24.17;;;;;;;9.83;75.20;99924.28;5028076;28;20059;-34
2022/04/20 10:11:23;;;;;;;30.65;20.33;;;;;;;9.65;74.00;99907.19;5027902;28;20429;-34
2022/04/20 10:16:52;;;;;;;32.13;22.80;;;;;;;10.00;76.20;99896.03;5029228;28;20041;-30
2022/04/20 10:19:28;;;;;;;29.60;20.65;;;;;;;10.26;74.70;99910.16;5029066;28;20025;-32
2022/04/20 10:21:55;;;;;;;30.73;22.02;;;;;;;10.51;74.36;99899.47;5027689;28;20037;-35
2022/04/20 10:24:33;;;;;;;29.45;21.00;;;;;;;10.54;74.16;99885.69;5027437;28;20083;-31
2022/04/20 10:27:22;;;;;;;30.13;21.00;;;;;;;10.29;72.17;99901.72;5027544;28;20033;-31
2022/04/20 10:29:56;;;;;;;27.08;19.67;;;;;;;10.05;73.75;99890.88;5027550;28;20136;-30
2022/04/20 10:32:28;;;;;;;30.27;21.35;;;;;;;9.79;74.38;99873.28;5027413;28;20045;-32
2022/04/20 10:34:54;;;;;;;31.15;19.20;;;;;;;10.00;74.14;99880.06;5027081;28;20029;-31
2022/04/20 10:37:25;;;;;;;28.30;20.80;;;;;;;9.73;75.25;99873.34;5027126;28;20026;-37
2022/04/20 10:39:53;;;;;;;29.23;20.63;;;;;;;9.86;75.06;99883.88;5028973;28;20461;-30
2022/04/20 10:42:20;;;;;;;30.15;20.73;;;;;;;9.73;75.42;99882.16;5027301;28;20033;-34
2022/04/20 10:44:55;;;;;;;33.47;20.70;;;;;;;9.82;77.38;99872.84;5028819;28;20049;-30
2022/04/20 10:47:42;;;;;;;29.92;20.95;;;;;;;9.55;78.38;99879.44;5028587;28;20284;-32
2022/04/20 10:50:21;;;;;;;29.23;22.02;;;;;;;9.71;77.50;99865.56;5028776;28;20053;-33
2022/04/20 10:53:01;;;;;;;31.23;21.60;;;;;;;9.55;77.72;99836.84;5027265;28;20053;-31
2022/04/20 10:55:36;;;;;;;34.33;24.35;;;;;;;9.92;77.20;99872.34;5027191;28;20060;-31
2022/04/20 10:58:19;;;;;;;33.33;21.88;;;;;;;9.95;76.67;99871.09;5028510;28;20030;-31
2022/04/20 11:00:44;;;;;;;31.80;21.88;;;;;;;9.94;77.79;99864.94;5026960;28;20528;-34
2022/04/20 11:03:12;;;;;;;29.92;20.73;;;;;;;9.93;76.77;99852.69;5028158;28;20033;-31
2022/04/20 11:05:53;;;;;;;30.33;22.10;;;;;;;9.54;78.06;99865.31;5026951;28;20030;-30
2022/04/20 11:08:20;;;;;;;34.80;21.50;;;;;;;9.56;79.45;99857.94;5026288;28;20037;-33
2022/04/20 11:19:49;;;;;;;53.63;31.90;;;;;;;9.23;80.65;99829.72;5027977;28;20087;-31
2022/04/20 11:22:15;;;;;;;36.97;23.77;;;;;;;9.19;82.14;99825.84;5026589;28;20112;-32
2022/04/20 11:24:41;;;;;;;69.55;37.20;;;;;;;9.33;80.22;99828.41;5026464;28;20033;-30
2022/04/20 11:27:08;;;;;;;45.40;28.77;;;;;;;9.36;83.58;99828.00;5026394;28;20026;-35
2022/04/20 11:29:34;;;;;;;34.55;23.98;;;;;;;9.36;83.45;99817.34;5027805;28;20045;-30
2022/04/20 11:32:03;;;;;;;37.75;26.75;;;;;;;9.47;83.68;99784.69;5027861;28;20066;-33
2022/04/20 11:34:32;;;;;;;34.20;22.80;;;;;;;9.59;80.77;99814.06;5026288;28;20474;-36
2022/04/20 11:37:03;;;;;;;47.15;28.77;;;;;;;9.69;80.88;99795.75;5026005;28;20111;-30
2022/04/20 11:39:30;;;;;;;30.48;21.45;;;;;;;9.58;79.83;99791.97;5026120;28;20059;-33
2022/04/20 11:41:58;;;;;;;29.92;21.50;;;;;;;9.52;80.63;99784.84;5025835;28;20048;-29
2022/04/20 11:44:29;;;;;;;29.15;21.05;;;;;;;9.54;79.77;99780.13;5026196;28;20036;-30
2022/04/20 11:46:57;;;;;;;28.08;20.08;;;;;;;9.59;78.59;99777.59;5026077;28;20036;-34
2022/04/20 11:49:32;;;;;;;28.23;19.83;;;;;;;9.79;78.17;99792.59;5026127;28;20029;-30
2022/04/20 11:51:59;;;;;;;28.50;21.25;;;;;;;9.69;78.92;99786.97;5026000;28;20043;-29